メインページ
METAR-TAF:

METAR-TAF

空港 :

T・F・グリーン空港

プロビデンス, ロードアイランド州, アメリカ合衆国

緯度: 41-43-26N, 経度: 071-25-41W, 海抜: 16m

現時点の気象観測

当レポートは29分前の04:51(UTC)に作成
南西の風 5kt
気温 21°C
湿度 83%
気圧 1018 hPa
視程: 16.1km
晴天

METAR: KPVD 210451Z 23005KT 10SM CLR 21/18 A3005 RMK AO2 SLP176 T02110178 403110206

時間: 01:20 (05:20 UTC)

予報

当レポートは6時間0分前の23:20(UTC)に作成
予報は21日の 00時(UTC)から 21日の 24時(UTC)まで有効
南/南西の風 4kt
視程: 10km
高度25000ftの雲は散在している
21日の 1200時(UTC)から
の風 4kt
視程: 10km
高度12000ftの千切れ雲あり
21日の 1400時(UTC)から
の風 7kt
視程: 10km
高度7000ftの曇り
近辺でにわか雨
21日の 1700時(UTC)から
の風 8kt
視程: 10km
高度3500ftの曇り
近辺でにわか雨
21日の 2300時(UTC)から
南/南西の風 8kt
視程: 10km
高度4000ftの千切れ雲あり
近辺でにわか雨

TAF: KPVD 202320Z 2100/2124 21004KT P6SM SCT250 FM211200 17004KT P6SM BKN120 FM211400 17007KT P6SM VCSH OVC070 FM211700 17008KT P6SM VCSH OVC035 FM212300 20008KT P6SM VCSH BKN040

4,000以上の空港の気象観測と天気予報(METAR報とTAF報)

利用可能な観測所は地図上に黄色い丸と赤い丸で示す。

丸の上にカーソルを重ねると観測所名を参照できる。

次にクリックすると気象観測と天気予報を参照できる。

マップの切り替え:黒色「×」印の緑ボタンをクリックして拡大、「-」印の緑ボタンをクリックして縮小、緑色の三角印をクリックして隣りの地図に切り替え


METAR-TAF: